createdAt,value
2022-12-23T00:03:31.969Z,195.70
2022-12-23T00:13:54.943Z,195.20
2022-12-23T00:23:58.675Z,202.20
2022-12-23T00:34:03.878Z,204.90
2022-12-23T00:44:07.758Z,211.00
2022-12-23T00:54:13.207Z,201.20
2022-12-23T01:04:36.615Z,191.77
2022-12-23T01:14:42.595Z,198.07
2022-12-23T01:24:46.470Z,195.40
2022-12-23T01:34:51.667Z,197.50
2022-12-23T01:45:01.044Z,195.57
2022-12-23T01:55:07.339Z,197.40
2022-12-23T02:05:11.321Z,190.87
2022-12-23T02:15:53.371Z,195.17
2022-12-23T02:26:23.011Z,194.57
2022-12-23T02:36:40.143Z,195.43
2022-12-23T02:46:48.619Z,190.33
2022-12-23T02:56:55.976Z,190.53
2022-12-23T03:07:06.933Z,194.93
2022-12-23T03:17:27.356Z,193.37
2022-12-23T03:27:37.417Z,191.10
2022-12-23T03:37:47.887Z,191.53
2022-12-23T03:47:56.527Z,189.63
2022-12-23T03:58:11.273Z,195.67
2022-12-23T04:08:19.373Z,187.77
2022-12-23T04:18:24.567Z,193.17
2022-12-23T04:28:28.389Z,192.63
2022-12-23T04:38:33.796Z,192.93
2022-12-23T04:48:37.763Z,193.50
2022-12-23T04:58:43.175Z,192.77
2022-12-23T05:08:46.999Z,188.33
2022-12-23T05:18:52.209Z,191.13
2022-12-23T05:28:56.799Z,192.20
2022-12-23T05:39:02.100Z,189.97
2022-12-23T05:49:06.064Z,190.40
2022-12-23T05:59:11.423Z,190.97
2022-12-23T06:09:15.398Z,185.07
2022-12-23T06:19:20.541Z,183.93
2022-12-23T06:29:24.459Z,196.30
2022-12-23T06:39:29.580Z,197.73
2022-12-23T06:49:33.274Z,197.77
2022-12-23T06:59:38.485Z,185.07
2022-12-23T07:09:42.081Z,193.70
2022-12-23T07:19:47.078Z,196.83
2022-12-23T07:29:50.831Z,194.60
2022-12-23T07:39:56.054Z,189.77
2022-12-23T07:49:59.749Z,191.23
2022-12-23T08:00:07.170Z,198.30
2022-12-23T08:10:16.045Z,198.30
2022-12-23T08:20:21.171Z,195.63
2022-12-23T08:30:25.166Z,199.23
2022-12-23T08:40:30.370Z,199.70
2022-12-23T08:50:39.606Z,204.27
2022-12-23T09:00:44.827Z,218.37
2022-12-23T09:10:48.502Z,205.23
2022-12-23T09:20:59.563Z,205.20
2022-12-23T09:31:09.248Z,208.60
2022-12-23T09:41:29.206Z,218.47
2022-12-23T09:51:35.343Z,217.00
2022-12-23T10:01:50.551Z,226.43
2022-12-23T10:11:54.555Z,216.43
2022-12-23T10:22:05.088Z,206.13
2022-12-23T10:32:23.462Z,203.10
2022-12-23T10:42:35.748Z,193.53
2022-12-23T10:52:43.722Z,203.53
2022-12-23T11:03:01.141Z,199.53
2022-12-23T11:13:05.218Z,200.63
2022-12-23T11:23:26.730Z,204.90
2022-12-23T11:33:33.431Z,205.43
2022-12-23T11:43:41.095Z,205.07
2022-12-23T11:53:45.268Z,211.23
2022-12-23T12:03:54.783Z,210.00
2022-12-23T12:14:01.863Z,203.30
2022-12-23T12:24:19.261Z,207.23
2022-12-23T12:34:39.399Z,204.27
2022-12-23T12:44:53.961Z,202.80
2022-12-23T12:55:05.611Z,206.70
2022-12-23T13:05:38.391Z,208.40
2022-12-23T13:15:51.659Z,210.37
2022-12-23T13:26:02.770Z,207.13
2022-12-23T13:36:21.718Z,209.37
2022-12-23T13:46:39.855Z,206.27
2022-12-23T13:56:50.456Z,203.73
2022-12-23T14:06:58.166Z,205.03
2022-12-23T14:17:13.238Z,213.77
2022-12-23T14:27:38.038Z,208.07
2022-12-23T14:37:42.066Z,205.40
2022-12-23T14:47:47.322Z,213.20
2022-12-23T14:57:56.261Z,212.73
2022-12-23T15:08:01.532Z,211.40
2022-12-23T15:18:10.997Z,210.33
2022-12-23T15:28:20.462Z,209.40
2022-12-23T15:38:30.478Z,210.40
2022-12-23T15:48:35.763Z,209.53
2022-12-23T15:58:43.528Z,208.47
2022-12-23T16:08:58.965Z,212.17
2022-12-23T16:19:02.691Z,214.80
2022-12-23T16:29:08.025Z,217.37
2022-12-23T16:39:23.018Z,217.93
2022-12-23T16:49:33.780Z,219.37
2022-12-23T16:59:41.300Z,223.07
2022-12-23T17:09:46.811Z,215.50
2022-12-23T17:19:50.655Z,220.03
2022-12-23T17:29:55.951Z,228.67
2022-12-23T17:39:59.769Z,223.27
2022-12-23T17:50:05.568Z,235.43
2022-12-23T18:00:11.207Z,247.23
2022-12-23T18:10:21.623Z,230.70
2022-12-23T18:20:26.266Z,237.03
2022-12-23T18:30:31.790Z,240.17
2022-12-23T18:40:35.693Z,235.77
2022-12-23T18:50:42.535Z,241.00
2022-12-23T19:00:47.792Z,234.53
2022-12-23T19:10:54.145Z,249.10
2022-12-23T19:20:57.894Z,247.63
2022-12-23T19:31:08.276Z,245.80
2022-12-23T19:41:12.121Z,245.40
2022-12-23T19:51:17.165Z,251.90
2022-12-23T20:01:25.119Z,250.67
2022-12-23T20:11:32.673Z,248.77
2022-12-23T20:21:37.534Z,245.23
2022-12-23T20:31:43.025Z,256.77
2022-12-23T20:41:46.738Z,254.90
2022-12-23T20:51:51.840Z,255.93
2022-12-23T21:01:55.626Z,245.40
2022-12-23T21:12:04.318Z,236.13
2022-12-23T21:22:08.464Z,218.67
2022-12-23T21:32:13.726Z,224.93
2022-12-23T21:42:17.490Z,221.73
2022-12-23T21:52:22.643Z,213.73
2022-12-23T22:02:26.843Z,205.67
2022-12-23T22:12:32.293Z,204.87
2022-12-23T22:22:36.000Z,206.73
2022-12-23T22:32:42.719Z,206.77
2022-12-23T22:42:46.607Z,206.17
2022-12-23T22:52:51.762Z,196.70
2022-12-23T23:02:55.676Z,212.43
2022-12-23T23:13:01.065Z,208.73
2022-12-23T23:23:04.764Z,207.63
2022-12-23T23:33:11.466Z,206.53
2022-12-23T23:43:15.771Z,209.80
2022-12-23T23:53:20.937Z,212.23
